Yelm, Washington
Current Conditions -  °F | °C
As of 3:58 AM on Sunday 21 Dec 2014 (Local Time) from KGRF Reporting Station
Clear Clear  
Wind Chill: 51°   Ceiling: Unl
Heat Index: 51°   Visibility: 10mi
Dew Point: 47°   Wind: 6mph
Humidity: 87%   Direction: NA
Pressure: 29.78"   Gusts: NA
Location:  46.94°N, 122.61°W
Report Text: KGRF 211158Z VRB05KT 10SM CLR 11/09 A2978 RMK AO2A SLP089 60007 70091 T01050085 10128 20104 52036 $
Loading
Personal Weather Stations






























Interactive Weather Map New forecast layout! Learn more

10-Day Weather Forecast

Advertisements
Track Severe Weather on mobile